Time;durP1;ratioP1;P1;durP2;ratioP2;P2;SDS_P1;SDS_P2;PMS_P1;PMS_P2;Temp;Humidity;BMP_temperature;BMP_pressure;BME280_temperature;BME280_humidity;BME280_pressure;Samples;Min_cycle;Max_cycle;Signal;HPM_P1;HPM_P2
2023/10/18 04:02:06;;;;;;;0.50;0.10;;;6.90;17.50;;;;;;5249360;23;20496;-73
2023/10/18 04:04:36;;;;;;;0.50;0.20;;;6.80;19.60;;;;;;4976894;28;20974;-74
2023/10/18 04:07:12;;;;;;;0.50;0.10;;;6.80;27.60;;;;;;4965358;28;21011;-73
2023/10/18 04:09:47;;;;;;;0.50;0.10;;;6.80;21.20;;;;;;4973421;28;20527;-73
2023/10/18 04:12:19;;;;;;;0.50;0.10;;;6.70;21.90;;;;;;4983780;28;20484;-73
2023/10/18 04:14:52;;;;;;;0.50;0.10;;;6.80;22.00;;;;;;4994569;23;21023;-73
2023/10/18 04:17:36;;;;;;;0.50;0.10;;;6.80;30.00;;;;;;4964188;28;20528;-72
2023/10/18 04:20:15;;;;;;;0.50;0.10;;;6.70;21.80;;;;;;4973183;28;20470;-73
2023/10/18 04:22:43;;;;;;;0.50;0.10;;;6.70;21.90;;;;;;4957144;29;20486;-73
2023/10/18 04:25:16;;;;;;;0.50;0.10;;;6.70;22.10;;;;;;4939062;29;20467;-73
2023/10/18 04:27:45;;;;;;;0.50;0.10;;;6.60;22.50;;;;;;4945589;29;20476;-73
2023/10/18 04:30:16;;;;;;;0.50;0.10;;;6.60;22.70;;;;;;4937746;29;20951;-72
2023/10/18 04:32:45;;;;;;;0.50;0.17;;;6.60;23.00;;;;;;4934986;29;20479;-73
2023/10/18 04:35:18;;;;;;;0.50;0.10;;;6.60;23.60;;;;;;4933609;29;20483;-73
2023/10/18 04:37:47;;;;;;;0.80;0.50;;;6.60;24.00;;;;;;4937344;29;20451;-72
2023/10/18 04:40:24;;;;;;;0.50;0.10;;;6.60;24.30;;;;;;4941885;29;20451;-72
2023/10/18 04:42:54;;;;;;;0.50;0.10;;;6.50;25.30;;;;;;4948680;29;20491;-72
2023/10/18 04:45:24;;;;;;;0.50;0.10;;;6.50;26.20;;;;;;4939913;29;20451;-73
2023/10/18 04:47:58;;;;;;;0.50;0.10;;;6.50;26.60;;;;;;4939577;29;20452;-73
2023/10/18 04:50:29;;;;;;;0.50;0.10;;;6.50;27.20;;;;;;4945799;29;20450;-72
2023/10/18 04:52:58;;;;;;;0.50;0.10;;;6.50;27.40;;;;;;4956866;28;20451;-72
2023/10/18 04:55:26;;;;;;;0.60;0.33;;;6.40;27.60;;;;;;4958549;29;20521;-72
2023/10/18 04:57:54;;;;;;;0.50;0.10;;;6.30;28.40;;;;;;4954933;29;20449;-72
2023/10/18 05:00:25;;;;;;;0.50;0.10;;;6.30;29.50;;;;;;4943483;29;20521;-72
2023/10/18 05:02:58;;;;;;;0.50;0.10;;;6.20;31.20;;;;;;4941128;29;20909;-73
2023/10/18 05:05:26;;;;;;;0.50;0.10;;;6.10;35.60;;;;;;4950303;29;20447;-73
2023/10/18 05:07:54;;;;;;;0.50;0.10;;;6.10;39.70;;;;;;4936286;29;20997;-72
2023/10/18 05:10:23;;;;;;;0.50;0.10;;;6.00;44.90;;;;;;4948973;29;20502;-73
2023/10/18 05:13:07;;;;;;;0.50;0.10;;;6.00;50.20;;;;;;4944919;29;20472;-72
2023/10/18 05:15:36;;;;;;;0.50;0.20;;;6.00;54.70;;;;;;4949696;29;20544;-72
2023/10/18 05:18:15;;;;;;;0.50;0.10;;;6.10;57.90;;;;;;4953646;29;20454;-70
2023/10/18 05:20:46;;;;;;;1.23;0.77;;;6.10;59.00;;;;;;4953517;29;20945;-72
2023/10/18 05:23:22;;;;;;;0.50;0.20;;;;;;;;;;4934554;29;20912;-70
2023/10/18 05:25:56;;;;;;;0.60;0.53;;;6.20;59.00;;;;;;4950283;29;20467;-70
2023/10/18 05:28:28;;;;;;;0.50;0.10;;;6.20;58.90;;;;;;4929521;29;20539;-71
2023/10/18 05:33:49;;;;;;;0.50;0.10;;;6.20;57.30;;;;;;4934308;29;20467;-71
2023/10/18 05:36:34;;;;;;;0.50;0.10;;;6.20;56.90;;;;;;4942191;29;20451;-72
2023/10/18 05:39:19;;;;;;;0.50;0.10;;;6.20;57.70;;;;;;4942697;29;20448;-70
2023/10/18 05:41:49;;;;;;;0.50;0.10;;;6.20;57.90;;;;;;4935116;29;20487;-73
2023/10/18 05:44:17;;;;;;;0.50;0.10;;;6.20;56.50;;;;;;4935342;29;20475;-73
2023/10/18 05:46:46;;;;;;;2.17;2.07;;;6.20;56.00;;;;;;4943216;29;20451;-72
2023/10/18 05:49:16;;;;;;;0.80;0.80;;;6.10;56.50;;;;;;4934950;29;20456;-72
2023/10/18 05:51:54;;;;;;;0.50;0.10;;;6.10;59.30;;;;;;4948157;29;20447;-72
2023/10/18 05:54:24;;;;;;;0.50;0.10;;;6.10;61.90;;;;;;4942878;29;20918;-71
2023/10/18 05:56:53;;;;;;;0.60;0.50;;;6.20;61.70;;;;;;4944839;29;20519;-73
2023/10/18 05:59:33;;;;;;;0.50;0.20;;;6.20;62.00;;;;;;4961435;29;20550;-72
2023/10/18 06:02:09;;;;;;;0.50;0.20;;;6.20;61.10;;;;;;4950071;29;20569;-71
2023/10/18 06:04:42;;;;;;;0.50;0.10;;;6.30;61.10;;;;;;4941674;29;20466;-71
2023/10/18 06:07:11;;;;;;;0.50;0.20;;;6.30;61.30;;;;;;4932139;29;20471;-72
2023/10/18 06:09:46;;;;;;;0.50;0.10;;;6.30;59.70;;;;;;4939554;29;20471;-71
2023/10/18 06:12:21;;;;;;;0.60;0.40;;;6.30;60.00;;;;;;4940249;29;20536;-72
2023/10/18 06:14:52;;;;;;;0.50;0.10;;;6.40;60.20;;;;;;4939211;29;20470;-72
2023/10/18 06:17:22;;;;;;;0.50;0.10;;;6.40;58.60;;;;;;4938815;29;20448;-71
2023/10/18 06:19:52;;;;;;;0.50;0.10;;;6.40;58.60;;;;;;4938775;29;20454;-72
2023/10/18 06:22:29;;;;;;;0.50;0.10;;;6.40;58.10;;;;;;4938708;29;20570;-72
2023/10/18 06:25:00;;;;;;;0.50;0.10;;;6.30;56.20;;;;;;4938811;29;20853;-71
2023/10/18 06:27:38;;;;;;;0.50;0.10;;;6.30;55.30;;;;;;4939203;29;20918;-74
2023/10/18 06:30:14;;;;;;;0.50;0.10;;;6.30;56.50;;;;;;4939084;29;20541;-73
2023/10/18 06:32:43;;;;;;;0.50;0.10;;;6.20;57.00;;;;;;4938459;29;20807;-72
2023/10/18 06:35:17;;;;;;;0.50;0.10;;;6.20;59.40;;;;;;4933625;29;20463;-73
2023/10/18 06:37:45;;;;;;;0.50;0.10;;;6.30;60.90;;;;;;4938828;29;20502;-73
2023/10/18 06:40:22;;;;;;;0.73;0.57;;;6.30;62.50;;;;;;4938209;29;20471;-74
2023/10/18 06:42:51;;;;;;;0.50;0.10;;;6.30;62.60;;;;;;4938173;29;21087;-72
2023/10/18 06:45:19;;;;;;;0.50;0.10;;;6.40;62.90;;;;;;4938084;29;20534;-73
2023/10/18 06:47:47;;;;;;;0.50;0.10;;;6.40;62.60;;;;;;4939526;29;20476;-74
2023/10/18 06:50:25;;;;;;;0.50;0.10;;;6.50;61.30;;;;;;4939467;29;20455;-73
2023/10/18 06:52:53;;;;;;;0.50;0.10;;;6.40;59.40;;;;;;4938674;29;20449;-74
2023/10/18 06:55:30;;;;;;;0.83;0.83;;;6.40;60.50;;;;;;4934029;29;20473;-72
2023/10/18 06:57:58;;;;;;;0.50;0.10;;;6.40;62.90;;;;;;4936864;29;20866;-73
2023/10/18 07:00:30;;;;;;;0.50;0.10;;;6.50;64.40;;;;;;4928719;29;20452;-73
2023/10/18 07:03:01;;;;;;;0.50;0.10;;;6.60;65.10;;;;;;4927267;29;21034;-72
2023/10/18 07:05:35;;;;;;;0.50;0.10;;;6.60;61.80;;;;;;4930661;29;20452;-73
2023/10/18 07:08:03;;;;;;;0.60;0.40;;;6.60;62.00;;;;;;4937940;29;20455;-73
2023/10/18 07:10:53;;;;;;;0.60;0.40;;;6.60;62.00;;;;;;4938908;29;20482;-72
2023/10/18 07:13:42;;;;;;;1.00;0.90;;;6.60;59.90;;;;;;4937325;29;20479;-72
2023/10/18 07:16:14;;;;;;;1.17;0.40;;;6.60;59.60;;;;;;4937761;29;20467;-72
2023/10/18 07:18:44;;;;;;;0.60;0.30;;;6.70;61.20;;;;;;4937491;29;20448;-73
2023/10/18 07:21:19;;;;;;;0.53;0.20;;;6.70;61.40;;;;;;4937176;29;20535;-72
2023/10/18 07:23:53;;;;;;;0.50;0.10;;;6.70;63.80;;;;;;4932422;29;20498;-72
2023/10/18 07:26:22;;;;;;;2.70;1.43;;;6.80;64.40;;;;;;4930070;29;20823;-73
2023/10/18 07:28:50;;;;;;;0.50;0.10;;;6.90;65.00;;;;;;4936448;29;20451;-71
2023/10/18 07:31:18;;;;;;;0.50;0.10;;;6.90;64.60;;;;;;4936843;29;20447;-73
2023/10/18 07:33:50;;;;;;;6.47;1.13;;;7.00;63.80;;;;;;4936748;29;20467;-71
2023/10/18 07:36:19;;;;;;;1.00;0.57;;;7.00;64.30;;;;;;4920796;29;20466;-71
2023/10/18 07:38:55;;;;;;;0.50;0.20;;;7.10;66.60;;;;;;4935022;29;20528;-71
2023/10/18 07:41:26;;;;;;;0.50;0.10;;;;;;;;;;4930083;29;20506;-71
2023/10/18 07:44:20;;;;;;;1.80;0.57;;;;;;;;;;4936611;29;20497;-73
2023/10/18 07:46:50;;;;;;;0.70;0.30;;;7.40;65.20;;;;;;4936612;29;20456;-71
2023/10/18 07:49:19;;;;;;;1.43;1.17;;;7.40;63.70;;;;;;4932407;29;20456;-73
2023/10/18 07:51:55;;;;;;;0.63;0.30;;;7.50;65.30;;;;;;4928336;29;20453;-70
2023/10/18 07:54:24;;;;;;;2.77;2.57;;;7.60;64.00;;;;;;4921197;29;20546;-74
2023/10/18 07:56:54;;;;;;;1.10;0.70;;;7.70;63.30;;;;;;4934676;29;20459;-72
2023/10/18 07:59:28;;;;;;;0.50;0.10;;;11.10;62.10;;;;;;4932935;29;20828;-71
2023/10/18 08:02:12;;;;;;;0.60;0.50;;;7.80;57.40;;;;;;4935723;29;20466;-71
2023/10/18 08:04:44;;;;;;;0.80;0.80;;;7.90;55.00;;;;;;4930846;29;20573;-71
2023/10/18 08:07:16;;;;;;;0.50;0.10;;;7.90;54.90;;;;;;4935775;29;21075;-71
2023/10/18 08:09:44;;;;;;;3.80;2.27;;;7.90;53.10;;;;;;4935409;29;20459;-70
2023/10/18 08:12:22;;;;;;;0.50;0.10;;;7.90;54.80;;;;;;4935756;29;20562;-71
2023/10/18 08:14:50;;;;;;;0.50;0.17;;;8.10;54.20;;;;;;4940790;28;20491;-72
2023/10/18 08:17:30;;;;;;;0.50;0.20;;;8.10;55.00;;;;;;4932298;29;20869;-72
2023/10/18 08:20:17;;;;;;;0.70;0.53;;;8.20;52.90;;;;;;4940794;29;20482;-74
2023/10/18 08:22:47;;;;;;;0.93;0.83;;;8.30;51.20;;;;;;4931474;29;20487;-74
2023/10/18 08:25:29;;;;;;;1.60;0.50;;;8.40;46.20;;;;;;4935336;29;20567;-72
2023/10/18 08:27:57;;;;;;;0.50;0.10;;;8.40;45.40;;;;;;4944258;29;20477;-74
2023/10/18 08:30:38;;;;;;;0.50;0.10;;;8.50;45.60;;;;;;4936955;29;20824;-72
2023/10/18 08:33:07;;;;;;;0.80;0.47;;;8.60;44.40;;;;;;4935876;29;20475;-72
2023/10/18 08:35:36;;;;;;;1.10;0.87;;;8.70;41.70;;;;;;4937312;29;20450;-71
2023/10/18 08:38:05;;;;;;;0.50;0.10;;;8.70;41.40;;;;;;4943450;29;20814;-73
2023/10/18 08:40:38;;;;;;;2.00;0.93;;;8.70;42.20;;;;;;4938239;29;20452;-73
2023/10/18 08:43:12;;;;;;;0.50;0.10;;;8.70;40.50;;;;;;4938743;29;20443;-72
2023/10/18 08:45:47;;;;;;;0.60;0.50;;;8.70;41.30;;;;;;4940731;29;20482;-73
2023/10/18 08:48:27;;;;;;;0.60;0.23;;;8.80;41.20;;;;;;4938129;29;20448;-73
2023/10/18 08:50:57;;;;;;;0.50;0.10;;;8.70;38.20;;;;;;4947231;29;20455;-74
2023/10/18 08:53:31;;;;;;;0.60;0.10;;;8.80;41.30;;;;;;4936427;29;20515;-71
2023/10/18 08:55:59;;;;;;;0.50;0.10;;;8.80;42.60;;;;;;4943290;29;20482;-72
2023/10/18 08:58:28;;;;;;;0.60;0.30;;;8.90;44.50;;;;;;4936667;29;20447;-73
2023/10/18 09:01:05;;;;;;;0.50;0.10;;;9.00;43.80;;;;;;4935084;29;20451;-72
2023/10/18 09:03:35;;;;;;;0.70;0.30;;;9.10;44.40;;;;;;4929599;29;20925;-72
2023/10/18 09:06:05;;;;;;;0.50;0.10;;;9.20;42.40;;;;;;4933708;29;20475;-71
2023/10/18 09:08:38;;;;;;;1.37;0.77;;;9.20;41.00;;;;;;4932460;29;20459;-72
2023/10/18 09:11:20;;;;;;;0.50;0.10;;;9.20;42.00;;;;;;4934470;29;20487;-73
2023/10/18 09:16:37;;;;;;;0.50;0.10;;;9.30;41.50;;;;;;4935847;29;20450;-72
2023/10/18 09:19:06;;;;;;;1.87;1.73;;;9.30;38.90;;;;;;4940423;29;20456;-72
2023/10/18 09:21:42;;;;;;;0.57;0.10;;;9.40;41.70;;;;;;4937749;28;20530;-73
2023/10/18 09:24:12;;;;;;;0.50;0.10;;;9.50;40.80;;;;;;4932666;29;20487;-73
2023/10/18 09:26:43;;;;;;;0.50;0.10;;;9.50;42.40;;;;;;4940131;29;20478;-73
2023/10/18 09:29:11;;;;;;;0.53;0.10;;;9.60;42.70;;;;;;4936468;29;20994;-74
2023/10/18 09:31:54;;;;;;;0.57;0.10;;;9.70;42.50;;;;;;4945567;29;20507;-71
2023/10/18 09:34:23;;;;;;;0.53;0.10;;;9.80;42.40;;;;;;4941617;28;20541;-72
2023/10/18 09:36:54;;;;;;;0.60;0.10;;;9.90;41.30;;;;;;4937723;29;20450;-75
2023/10/18 09:39:37;;;;;;;0.60;0.10;;;9.90;40.20;;;;;;4937712;29;20646;-73
2023/10/18 09:42:07;;;;;;;0.60;0.30;;;10.00;40.40;;;;;;4941507;29;20820;-74
2023/10/18 09:44:34;;;;;;;0.60;0.10;;;10.10;40.90;;;;;;4947363;28;20515;-74
2023/10/18 09:47:03;;;;;;;0.60;0.20;;;10.10;39.00;;;;;;4930526;29;20473;-72
2023/10/18 09:49:34;;;;;;;0.60;0.10;;;10.20;35.90;;;;;;4934171;29;20830;-72
2023/10/18 09:52:04;;;;;;;0.60;0.20;;;10.40;35.60;;;;;;4932809;29;20543;-73
2023/10/18 09:54:35;;;;;;;0.60;0.10;;;10.40;35.80;;;;;;4929848;29;20560;-76
2023/10/18 09:57:06;;;;;;;0.57;0.10;;;;;;;;;;4924931;29;20546;-75
2023/10/18 09:59:37;;;;;;;0.60;0.10;;;10.60;34.90;;;;;;4934657;29;20530;-75
2023/10/18 10:02:08;;;;;;;1.53;0.43;;;10.60;35.10;;;;;;4936619;29;20451;-74
2023/10/18 10:04:37;;;;;;;0.60;0.10;;;10.60;31.90;;;;;;4934644;29;20526;-74
2023/10/18 10:09:59;;;;;;;0.60;0.10;;;10.80;26.60;;;;;;4937836;29;20526;-74
2023/10/18 10:12:28;;;;;;;0.70;0.30;;;10.90;22.80;;;;;;4934030;29;20836;-73
2023/10/18 10:14:58;;;;;;;0.77;0.40;;;10.90;21.50;;;;;;4941143;29;20933;-73
2023/10/18 10:17:29;;;;;;;0.60;0.10;;;11.00;16.50;;;;;;4953408;29;20744;-74
2023/10/18 10:20:11;;;;;;;0.60;0.10;;;11.10;15.20;;;;;;4952590;29;20541;-72
2023/10/18 10:22:41;;;;;;;0.60;0.13;;;11.30;15.60;;;;;;4939871;28;20448;-73
2023/10/18 10:25:19;;;;;;;1.57;1.40;;;11.30;13.50;;;;;;4933743;29;20495;-71
2023/10/18 10:28:14;;;;;;;0.60;0.20;;;11.50;10.70;;;;;;4929731;29;20475;-74
2023/10/18 10:30:43;;;;;;;1.90;1.63;;;11.60;10.50;;;;;;4933083;29;21002;-73
2023/10/18 10:33:13;;;;;;;0.60;0.20;;;11.70;8.50;;;;;;4933175;29;20974;-72
2023/10/18 10:35:46;;;;;;;4.07;1.90;;;11.70;16.80;;;;;;4935360;29;20439;-71
2023/10/18 10:38:18;;;;;;;0.60;0.10;;;11.80;6.00;;;;;;4943624;29;20954;-73
2023/10/18 10:40:49;;;;;;;1.53;0.53;;;11.90;6.90;;;;;;4937355;29;20463;-72
2023/10/18 10:43:19;;;;;;;0.80;0.80;;;11.90;1.00;;;;;;4936441;29;20467;-73
2023/10/18 10:45:54;;;;;;;0.60;0.10;;;12.00;1.00;;;;;;4936835;29;20484;-73
2023/10/18 10:48:38;;;;;;;0.60;0.10;;;12.10;1.00;;;;;;4936250;29;20478;-73
2023/10/18 10:51:06;;;;;;;0.90;0.67;;;12.20;1.00;;;;;;4938806;29;20510;-73
2023/10/18 10:53:43;;;;;;;0.60;0.10;;;12.20;1.00;;;;;;4936569;29;20462;-73
2023/10/18 10:56:20;;;;;;;0.60;0.10;;;12.40;1.00;;;;;;4936568;29;20481;-73
2023/10/18 10:59:03;;;;;;;0.60;0.10;;;12.50;1.00;;;;;;4940021;29;20474;-72
2023/10/18 11:02:07;;;;;;;0.60;0.30;;;12.60;1.00;;;;;;4941707;29;20459;-73
2023/10/18 11:04:50;;;;;;;0.60;0.10;;;12.60;1.00;;;;;;4930959;29;20562;-74
2023/10/18 11:07:22;;;;;;;3.00;1.40;;;12.70;1.00;;;;;;4944195;29;20887;-73
2023/10/18 11:09:59;;;;;;;0.60;0.10;;;12.80;1.00;;;;;;4935855;29;20848;-74
2023/10/18 11:12:29;;;;;;;0.90;0.60;;;12.90;1.00;;;;;;4928405;29;20486;-73
2023/10/18 11:15:00;;;;;;;0.60;0.10;;;12.90;1.00;;;;;;4934658;29;20473;-73
2023/10/18 11:17:29;;;;;;;0.60;0.20;;;13.00;1.00;;;;;;4935786;29;20939;-73
2023/10/18 11:19:59;;;;;;;0.60;0.10;;;13.10;1.00;;;;;;4928093;29;20538;-74
2023/10/18 11:22:30;;;;;;;0.60;0.10;;;13.20;1.00;;;;;;4930393;29;20451;-73
2023/10/18 11:25:00;;;;;;;0.60;0.10;;;13.20;1.00;;;;;;4938857;28;20526;-74
2023/10/18 11:27:34;;;;;;;5.50;3.57;;;13.10;1.00;;;;;;4944325;29;20563;-73
2023/10/18 11:30:15;;;;;;;1.07;0.83;;;13.10;1.00;;;;;;4935829;29;20451;-71
2023/10/18 11:32:44;;;;;;;0.60;0.10;;;13.20;1.00;;;;;;4947488;29;21099;-74
2023/10/18 11:35:16;;;;;;;0.60;0.10;;;13.20;1.00;;;;;;4943238;28;20473;-73
2023/10/18 11:37:47;;;;;;;0.70;0.33;;;13.20;1.00;;;;;;4940740;29;20451;-72
2023/10/18 11:40:18;;;;;;;0.60;0.10;;;13.20;1.00;;;;;;4942059;29;20942;-71
2023/10/18 11:43:04;;;;;;;0.60;0.50;;;13.10;1.00;;;;;;4949242;29;20446;-73
2023/10/18 11:45:32;;;;;;;0.60;0.10;;;13.20;1.00;;;;;;4930013;29;20574;-72
2023/10/18 11:48:02;;;;;;;2.00;0.50;;;13.20;1.00;;;;;;4935321;29;20503;-73
2023/10/18 11:50:41;;;;;;;0.60;0.10;;;13.20;1.00;;;;;;4941292;29;20442;-73
2023/10/18 11:53:12;;;;;;;0.90;0.27;;;13.20;1.00;;;;;;4945793;29;20455;-75
2023/10/18 11:55:56;;;;;;;1.00;0.37;;;13.20;1.00;;;;;;4987015;23;20503;-75
2023/10/18 11:58:27;;;;;;;0.90;0.50;;;13.20;1.00;;;;;;5005878;28;20519;-73
2023/10/18 12:00:58;;;;;;;0.63;0.20;;;13.20;1.00;;;;;;4999712;28;20496;-74
2023/10/18 12:03:27;;;;;;;0.60;0.10;;;13.20;1.00;;;;;;4981714;28;20446;-73
2023/10/18 12:05:56;;;;;;;0.60;0.20;;;13.20;1.00;;;;;;4990966;28;20488;-73
2023/10/18 12:08:25;;;;;;;2.20;0.40;;;13.20;1.00;;;;;;4977784;28;20533;-73
2023/10/18 12:10:54;;;;;;;0.60;0.10;;;13.30;1.00;;;;;;4974128;28;20461;-73
2023/10/18 12:13:22;;;;;;;0.70;0.50;;;13.30;1.00;;;;;;4973209;28;20894;-74
2023/10/18 12:15:52;;;;;;;0.97;0.87;;;13.30;1.00;;;;;;4975498;28;20493;-75
2023/10/18 12:18:23;;;;;;;0.60;0.10;;;13.30;1.00;;;;;;4995469;28;20829;-74
2023/10/18 12:20:51;;;;;;;0.60;0.10;;;13.40;1.00;;;;;;4990775;28;20508;-74
2023/10/18 12:23:19;;;;;;;0.60;0.10;;;13.50;1.00;;;;;;4985413;28;20486;-74
2023/10/18 12:25:48;;;;;;;0.60;0.10;;;13.70;1.00;;;;;;4986034;28;20493;-74
2023/10/18 12:28:18;;;;;;;0.60;0.10;;;13.70;1.00;;;;;;4979342;28;20482;-73
2023/10/18 12:30:51;;;;;;;0.60;0.20;;;13.80;1.00;;;;;;4995273;28;20549;-74
2023/10/18 12:33:23;;;;;;;0.60;0.10;;;13.90;1.00;;;;;;4985343;28;20446;-73
2023/10/18 12:35:56;;;;;;;1.23;1.13;;;14.00;1.00;;;;;;4975889;28;20466;-73
2023/10/18 12:38:32;;;;;;;0.63;0.37;;;14.10;1.00;;;;;;4975442;28;20455;-72
2023/10/18 12:41:01;;;;;;;0.70;0.33;;;14.10;1.00;;;;;;4976503;28;20458;-75
2023/10/18 12:43:32;;;;;;;0.70;0.60;;;14.30;1.00;;;;;;4973829;28;20471;-74
2023/10/18 12:46:03;;;;;;;0.60;0.10;;;14.30;1.00;;;;;;4989249;28;20497;-74
2023/10/18 12:48:35;;;;;;;0.60;0.10;;;14.40;1.00;;;;;;4965957;28;20455;-74
2023/10/18 12:51:08;;;;;;;0.60;0.20;;;14.50;1.00;;;;;;4989495;28;20452;-74
2023/10/18 12:53:38;;;;;;;0.60;0.17;;;14.50;1.00;;;;;;4964831;28;20888;-74
2023/10/18 12:56:23;;;;;;;0.60;0.10;;;14.40;1.00;;;;;;4971958;28;20479;-74
2023/10/18 12:58:54;;;;;;;0.60;0.13;;;14.40;1.00;;;;;;4981488;28;20446;-73
2023/10/18 13:01:31;;;;;;;0.60;0.20;;;14.40;1.00;;;;;;4985617;28;20488;-74
2023/10/18 13:03:59;;;;;;;0.70;0.30;;;14.40;1.00;;;;;;4977196;28;20488;-75
2023/10/18 13:06:35;;;;;;;0.80;0.30;;;14.30;1.00;;;;;;4992034;28;20853;-73
2023/10/18 13:12:07;;;;;;;0.60;0.10;;;14.20;1.00;;;;;;4954030;28;20461;-73
2023/10/18 13:14:35;;;;;;;1.80;1.70;;;14.30;1.00;;;;;;4972391;28;20461;-75
2023/10/18 13:17:05;;;;;;;0.60;0.10;;;14.30;1.00;;;;;;4977142;28;20471;-70
2023/10/18 13:19:41;;;;;;;0.60;0.20;;;14.30;1.00;;;;;;4975900;28;20448;-70
2023/10/18 13:22:16;;;;;;;0.60;0.20;;;14.40;1.00;;;;;;4977246;28;20481;-73
2023/10/18 13:24:45;;;;;;;0.60;0.10;;;14.50;1.00;;;;;;4977210;28;20474;-73
2023/10/18 13:27:15;;;;;;;0.60;0.10;;;14.50;1.00;;;;;;4978281;28;20482;-72
2023/10/18 13:29:49;;;;;;;0.80;0.53;;;14.60;1.00;;;;;;4982210;28;20490;-72
2023/10/18 13:32:18;;;;;;;0.60;0.10;;;14.50;1.00;;;;;;4974783;28;20447;-72
2023/10/18 13:34:48;;;;;;;0.60;0.10;;;14.50;1.00;;;;;;4981896;28;20941;-72
2023/10/18 13:37:17;;;;;;;1.37;1.10;;;14.40;1.00;;;;;;4983422;28;20442;-73
2023/10/18 13:39:47;;;;;;;0.60;0.10;;;14.30;1.00;;;;;;4973544;28;20451;-73
2023/10/18 13:42:18;;;;;;;0.60;0.10;;;14.30;1.00;;;;;;4977115;28;20451;-73
2023/10/18 13:44:48;;;;;;;0.60;0.20;;;14.40;1.00;;;;;;4996510;28;20895;-73
2023/10/18 13:47:18;;;;;;;0.60;0.17;;;14.30;1.00;;;;;;4984157;28;20518;-73
2023/10/18 13:49:48;;;;;;;0.60;0.20;;;14.30;1.00;;;;;;4978365;28;20448;-74
2023/10/18 13:52:16;;;;;;;0.90;0.40;;;14.30;1.00;;;;;;4998076;28;20449;-73
2023/10/18 13:54:44;;;;;;;0.60;0.20;;;14.30;1.00;;;;;;4975571;28;20474;-72
2023/10/18 13:57:16;;;;;;;0.60;0.10;;;14.40;1.00;;;;;;4974572;28;20823;-73
2023/10/18 13:59:44;;;;;;;0.60;0.10;;;14.40;1.00;;;;;;4974127;28;20510;-73
2023/10/18 14:02:17;;;;;;;0.60;0.10;;;14.40;1.00;;;;;;4966526;28;20444;-73
2023/10/18 14:04:46;;;;;;;0.60;0.10;;;14.40;1.00;;;;;;4974477;28;20851;-74
2023/10/18 14:07:15;;;;;;;0.60;0.10;;;14.40;1.00;;;;;;4973786;28;20488;-72
2023/10/18 14:09:43;;;;;;;1.33;1.20;;;14.40;1.00;;;;;;4973407;28;20447;-73
2023/10/18 14:12:11;;;;;;;0.60;0.10;;;14.40;1.00;;;;;;4980850;28;20481;-74
2023/10/18 14:14:39;;;;;;;0.60;0.10;;;14.40;1.00;;;;;;5002755;28;20487;-73
2023/10/18 14:17:08;;;;;;;0.60;0.10;;;14.50;1.00;;;;;;4988687;28;20452;-72
2023/10/18 14:19:38;;;;;;;0.60;0.10;;;14.40;1.00;;;;;;4986287;28;20476;-73
2023/10/18 14:22:07;;;;;;;0.60;0.10;;;14.40;1.00;;;;;;4996007;28;20454;-73
2023/10/18 14:24:36;;;;;;;0.60;0.17;;;14.50;1.00;;;;;;4998000;28;20490;-73
2023/10/18 14:27:04;;;;;;;0.60;0.10;;;14.50;1.00;;;;;;4981264;28;20515;-72
2023/10/18 14:29:32;;;;;;;0.60;0.10;;;14.40;1.00;;;;;;4975843;28;20455;-73
2023/10/18 14:32:02;;;;;;;0.60;0.10;;;14.50;1.00;;;;;;4982746;28;20472;-73
2023/10/18 14:34:30;;;;;;;0.60;0.10;;;14.50;1.00;;;;;;4976563;28;20475;-73
2023/10/18 14:36:58;;;;;;;0.60;0.10;;;14.50;1.00;;;;;;4976026;28;20449;-73
2023/10/18 14:39:27;;;;;;;0.60;0.10;;;14.40;1.00;;;;;;4983927;28;20536;-72
2023/10/18 14:42:08;;;;;;;0.60;0.10;;;14.40;1.00;;;;;;4975571;28;20486;-74
2023/10/18 14:44:36;;;;;;;0.60;0.10;;;14.40;1.00;;;;;;4966360;28;20471;-73
2023/10/18 14:47:06;;;;;;;0.60;0.13;;;14.40;1.00;;;;;;4975595;28;20490;-73
2023/10/18 14:49:34;;;;;;;0.60;0.10;;;14.50;1.00;;;;;;4990202;28;20952;-73
2023/10/18 14:52:10;;;;;;;0.60;0.10;;;14.50;1.00;;;;;;4976122;28;20443;-73
2023/10/18 14:54:41;;;;;;;0.60;0.10;;;14.50;1.00;;;;;;4978362;28;20545;-74
2023/10/18 14:57:11;;;;;;;0.60;0.20;;;14.40;1.00;;;;;;4983600;28;20443;-73
2023/10/18 14:59:39;;;;;;;0.60;0.10;;;14.50;1.00;;;;;;4978956;28;20465;-72
2023/10/18 15:02:09;;;;;;;0.60;0.10;;;14.40;1.00;;;;;;4987042;28;20456;-73
2023/10/18 15:04:37;;;;;;;0.60;0.10;;;14.40;1.00;;;;;;4976638;28;20524;-73
2023/10/18 15:07:05;;;;;;;0.60;0.10;;;14.40;1.00;;;;;;4981775;28;20529;-73
2023/10/18 15:09:33;;;;;;;0.60;0.30;;;14.40;1.00;;;;;;4981700;28;20558;-73
2023/10/18 15:12:01;;;;;;;0.60;0.10;;;14.30;1.00;;;;;;4977698;28;20462;-72
2023/10/18 15:14:32;;;;;;;0.80;0.20;;;14.30;1.00;;;;;;4975972;28;20463;-73
2023/10/18 15:17:01;;;;;;;0.60;0.20;;;14.30;1.00;;;;;;4977596;28;20451;-74
2023/10/18 15:19:30;;;;;;;1.57;1.17;;;14.20;1.00;;;;;;4978238;28;20454;-73
2023/10/18 15:21:59;;;;;;;0.60;0.10;;;14.20;1.00;;;;;;4983645;28;20483;-73
2023/10/18 15:24:27;;;;;;;0.70;0.63;;;14.10;1.00;;;;;;4997249;28;20557;-73
2023/10/18 15:26:55;;;;;;;0.60;0.10;;;14.10;1.00;;;;;;4997328;28;20572;-74
2023/10/18 15:29:23;;;;;;;0.60;0.20;;;14.10;1.00;;;;;;4997423;28;20453;-73
2023/10/18 15:31:53;;;;;;;0.60;0.20;;;14.10;1.00;;;;;;4985503;28;20484;-73
2023/10/18 15:34:21;;;;;;;0.60;0.20;;;14.10;1.00;;;;;;4979626;28;20483;-73
2023/10/18 15:36:49;;;;;;;0.60;0.10;;;14.10;1.00;;;;;;4986308;28;20443;-73
2023/10/18 15:39:19;;;;;;;0.60;0.10;;;;;;;;;;4979337;28;20961;-72
2023/10/18 15:41:48;;;;;;;1.77;1.50;;;14.00;1.00;;;;;;4978210;28;20469;-73
2023/10/18 15:44:17;;;;;;;0.60;0.23;;;14.00;1.00;;;;;;4978849;28;20450;-73
2023/10/18 15:46:47;;;;;;;4.00;2.93;;;14.00;1.00;;;;;;4991025;28;20891;-72
2023/10/18 15:49:17;;;;;;;0.60;0.10;;;14.00;1.00;;;;;;4980455;28;20450;-73
2023/10/18 15:51:48;;;;;;;0.60;0.10;;;13.90;1.00;;;;;;4985604;28;20504;-71
2023/10/18 15:54:16;;;;;;;0.60;0.20;;;;;;;;;;4987838;28;20446;-72
2023/10/18 15:56:44;;;;;;;0.60;0.10;;;13.90;1.00;;;;;;4989903;28;20473;-72
2023/10/18 15:59:17;;;;;;;0.60;0.10;;;13.80;1.00;;;;;;4985837;28;20447;-73
2023/10/18 16:01:45;;;;;;;0.60;0.30;;;13.80;1.00;;;;;;4985672;28;20430;-73
2023/10/18 16:04:27;;;;;;;0.60;0.10;;;13.80;1.00;;;;;;5000940;28;20469;-72
2023/10/18 16:06:56;;;;;;;0.60;0.10;;;13.80;1.00;;;;;;4995059;28;20446;-73
2023/10/18 16:09:27;;;;;;;0.60;0.20;;;13.70;1.00;;;;;;4982239;28;20458;-72
2023/10/18 16:11:56;;;;;;;0.60;0.10;;;13.70;1.00;;;;;;4998996;28;20448;-73
2023/10/18 16:14:28;;;;;;;2.30;1.93;;;13.80;1.00;;;;;;4993261;28;20469;-74
2023/10/18 16:17:00;;;;;;;0.60;0.10;;;;;;;;;;4995434;28;20446;-73
2023/10/18 16:19:35;;;;;;;0.60;0.10;;;13.70;1.00;;;;;;5008980;28;20797;-73
2023/10/18 16:22:02;;;;;;;0.63;0.30;;;13.70;1.00;;;;;;5001194;28;20453;-74
2023/10/18 16:24:30;;;;;;;0.60;0.10;;;13.70;1.00;;;;;;4993116;28;20539;-72
2023/10/18 16:26:58;;;;;;;0.60;0.10;;;13.80;1.00;;;;;;5000514;28;20445;-73
2023/10/18 16:29:26;;;;;;;0.60;0.10;;;13.70;1.00;;;;;;4989450;28;20481;-73
2023/10/18 16:31:54;;;;;;;0.63;0.20;;;13.70;1.00;;;;;;4989942;28;20455;-73
2023/10/18 16:34:23;;;;;;;0.90;0.20;;;13.70;1.00;;;;;;4991733;28;20446;-73
2023/10/18 16:36:52;;;;;;;1.13;0.70;;;13.70;1.00;;;;;;4997445;28;20657;-73
2023/10/18 16:39:22;;;;;;;0.60;0.10;;;13.70;1.00;;;;;;4979372;28;20526;-72
2023/10/18 16:41:50;;;;;;;0.60;0.10;;;13.70;1.00;;;;;;4977602;28;20458;-73
2023/10/18 16:44:18;;;;;;;0.60;0.10;;;13.70;1.00;;;;;;4983062;28;20455;-72
2023/10/18 16:46:46;;;;;;;4.40;2.63;;;13.70;1.00;;;;;;4975764;28;20822;-73
2023/10/18 16:49:15;;;;;;;1.67;0.87;;;13.70;1.00;;;;;;4974821;28;20497;-74
2023/10/18 16:51:43;;;;;;;0.60;0.10;;;;;;;;;;4968672;28;20454;-72
2023/10/18 16:54:12;;;;;;;0.60;0.10;;;13.70;1.00;;;;;;4986650;28;20441;-74
2023/10/18 16:56:44;;;;;;;1.70;1.60;;;13.70;1.00;;;;;;4991081;28;20456;-75
2023/10/18 16:59:15;;;;;;;0.60;0.10;;;13.70;1.00;;;;;;4989964;28;20441;-73
2023/10/18 17:01:43;;;;;;;0.60;0.10;;;13.70;1.00;;;;;;4990651;28;20536;-74
2023/10/18 17:04:11;;;;;;;1.87;1.77;;;13.60;1.00;;;;;;4974299;28;20450;-74
2023/10/18 17:06:39;;;;;;;0.60;0.37;;;13.60;1.00;;;;;;4973640;28;20434;-73
2023/10/18 17:09:16;;;;;;;2.10;1.07;;;13.60;1.00;;;;;;4974344;28;20592;-73
2023/10/18 17:11:45;;;;;;;0.60;0.10;;;13.60;1.00;;;;;;4967488;28;20443;-74
2023/10/18 17:14:18;;;;;;;0.60;0.20;;;13.60;1.00;;;;;;4979276;28;20457;-73
2023/10/18 17:16:46;;;;;;;0.60;0.10;;;13.70;1.00;;;;;;4994347;28;20450;-73
2023/10/18 17:19:14;;;;;;;0.60;0.10;;;13.70;1.00;;;;;;4994456;28;20473;-73
2023/10/18 17:21:43;;;;;;;0.60;0.10;;;13.60;1.00;;;;;;4986135;28;20432;-72
2023/10/18 17:24:11;;;;;;;0.60;0.13;;;13.60;1.00;;;;;;4999460;28;20446;-73
2023/10/18 17:26:39;;;;;;;0.60;0.10;;;13.70;1.00;;;;;;5002605;28;20449;-73
2023/10/18 17:29:09;;;;;;;0.60;0.10;;;13.70;1.00;;;;;;4978530;28;20492;-74
2023/10/18 17:31:38;;;;;;;0.60;0.30;;;13.70;1.00;;;;;;4977190;28;20446;-73
2023/10/18 17:34:11;;;;;;;0.60;0.10;;;13.70;1.00;;;;;;4984279;28;20452;-73